Time;durP1;ratioP1;P1;durP2;ratioP2;P2;SDS_P1;SDS_P2;PMS_P1;PMS_P2;Temp;Humidity;BMP_temperature;BMP_pressure;BME280_temperature;BME280_humidity;BME280_pressure;Samples;Min_cycle;Max_cycle;Signal;HPM_P1;HPM_P2
2021/07/20 00:01:00;;;;;;;10.70;3.47;;;22.80;68.80;;;;;;5099375;28;20443;-70
2021/07/20 00:03:26;;;;;;;10.45;3.90;;;22.80;68.00;;;;;;5099327;28;20032;-70
2021/07/20 00:05:51;;;;;;;7.93;4.07;;;22.60;68.70;;;;;;5099576;28;20031;-70
2021/07/20 00:08:18;;;;;;;7.30;3.72;;;22.40;69.40;;;;;;5099169;28;20032;-71
2021/07/20 00:10:55;;;;;;;8.85;3.92;;;22.20;69.30;;;;;;5099536;28;20072;-71
2021/07/20 00:13:20;;;;;;;11.30;3.97;;;22.10;69.90;;;;;;5099532;28;20301;-71
2021/07/20 00:15:46;;;;;;;9.77;5.35;;;22.00;69.70;;;;;;5099268;28;20024;-71
2021/07/20 00:18:17;;;;;;;10.48;3.95;;;22.00;70.10;;;;;;5099320;28;20020;-71
2021/07/20 00:20:44;;;;;;;7.60;4.03;;;22.00;70.00;;;;;;5098863;28;20443;-71
2021/07/20 00:23:10;;;;;;;9.35;4.15;;;22.00;70.70;;;;;;5099268;28;20095;-71
2021/07/20 00:25:36;;;;;;;12.02;4.32;;;21.90;70.90;;;;;;5099174;28;20032;-70
2021/07/20 00:28:02;;;;;;;10.40;4.65;;;22.00;69.90;;;;;;5099204;28;20396;-71
2021/07/20 00:30:29;;;;;;;8.70;3.95;;;22.00;70.40;;;;;;5099003;28;20079;-71
2021/07/20 00:32:55;;;;;;;13.60;5.40;;;22.10;69.90;;;;;;5099115;28;20020;-70
2021/07/20 00:35:21;;;;;;;11.65;3.83;;;22.10;70.10;;;;;;5098634;28;20439;-71
2021/07/20 00:37:46;;;;;;;10.20;4.32;;;22.10;70.30;;;;;;5098894;28;20038;-71
2021/07/20 00:40:16;;;;;;;11.52;4.10;;;22.00;70.00;;;;;;5098542;28;20048;-70
2021/07/20 00:42:43;;;;;;;12.23;4.65;;;21.90;70.50;;;;;;5098427;28;20048;-70
2021/07/20 00:45:12;;;;;;;25.48;5.28;;;21.90;70.50;;;;;;5098074;28;20313;-71
2021/07/20 00:47:38;;;;;;;10.02;4.00;;;21.90;70.70;;;;;;5098801;28;20118;-70
2021/07/20 00:50:09;;;;;;;10.60;4.30;;;21.90;71.40;;;;;;5098628;28;20043;-70
2021/07/20 00:52:36;;;;;;;8.55;4.55;;;21.90;71.80;;;;;;5098733;28;20020;-71
2021/07/20 00:55:04;;;;;;;11.77;4.78;;;21.90;70.50;;;;;;5098580;28;20098;-70
2021/07/20 00:57:31;;;;;;;10.50;4.20;;;22.00;70.20;;;;;;5098120;28;20421;-70
2021/07/20 00:59:57;;;;;;;6.45;3.83;;;22.00;71.00;;;;;;5098206;28;20024;-70
2021/07/20 01:02:23;;;;;;;10.00;3.97;;;22.10;70.00;;;;;;5098530;28;20044;-70
2021/07/20 01:04:49;;;;;;;9.27;4.15;;;22.20;70.50;;;;;;5098345;28;20028;-70
2021/07/20 01:07:17;;;;;;;10.45;4.43;;;22.20;69.50;;;;;;5097943;28;20420;-70
2021/07/20 01:09:46;;;;;;;8.38;3.65;;;22.20;69.10;;;;;;5098064;28;20020;-71
2021/07/20 01:12:12;;;;;;;7.32;3.78;;;22.40;69.70;;;;;;5098317;28;20020;-70
2021/07/20 01:14:38;;;;;;;11.25;3.90;;;22.50;69.00;;;;;;5098456;28;20361;-70
2021/07/20 01:17:04;;;;;;;10.40;4.13;;;22.60;69.70;;;;;;5098243;28;20028;-70
2021/07/20 01:19:35;;;;;;;8.82;3.92;;;22.60;68.20;;;;;;5098110;28;20024;-70
2021/07/20 01:22:02;;;;;;;16.70;4.55;;;22.60;69.10;;;;;;5097856;28;20027;-71
2021/07/20 01:24:28;;;;;;;9.45;4.15;;;22.40;67.40;;;;;;5098057;28;20031;-70
2021/07/20 01:26:54;;;;;;;10.02;4.68;;;22.20;68.90;;;;;;5097733;28;20309;-71
2021/07/20 01:29:22;;;;;;;8.43;4.13;;;22.10;70.30;;;;;;5097646;28;20043;-70
2021/07/20 01:31:49;;;;;;;13.90;4.78;;;21.90;69.40;;;;;;5097956;28;20028;-70
2021/07/20 01:34:16;;;;;;;12.18;4.93;;;21.90;69.20;;;;;;5097884;28;20113;-70
2021/07/20 01:36:45;;;;;;;11.43;4.20;;;21.90;69.40;;;;;;5097728;28;20028;-70
2021/07/20 01:39:13;;;;;;;18.17;4.63;;;21.80;69.50;;;;;;5097464;28;20052;-71
2021/07/20 01:41:41;;;;;;;7.80;4.40;;;21.80;69.10;;;;;;5097758;28;20058;-70
2021/07/20 01:44:10;;;;;;;10.82;4.20;;;21.70;70.00;;;;;;5097293;28;20518;-71
2021/07/20 01:46:39;;;;;;;15.27;4.63;;;21.70;70.10;;;;;;5097341;28;20047;-70
2021/07/20 01:49:09;;;;;;;12.20;4.63;;;21.60;70.30;;;;;;5097650;28;20024;-70
2021/07/20 01:51:36;;;;;;;8.50;4.50;;;21.60;70.10;;;;;;5097348;28;20028;-70
2021/07/20 01:54:02;;;;;;;14.80;4.60;;;21.50;71.70;;;;;;5097386;28;20024;-70
2021/07/20 01:56:28;;;;;;;15.00;4.60;;;21.40;72.70;;;;;;5096949;28;20024;-70
2021/07/20 01:58:54;;;;;;;13.15;4.95;;;21.40;71.60;;;;;;5097431;28;20027;-71
2021/07/20 02:01:23;;;;;;;14.65;4.28;;;21.30;71.60;;;;;;5097109;28;20320;-70
2021/07/20 02:09:07;;;;;;;9.18;4.00;;;21.20;71.00;;;;;;5097727;28;20093;-70
2021/07/20 02:11:35;;;;;;;12.43;4.78;;;21.20;71.00;;;;;;5097595;28;20101;-70
2021/07/20 02:14:05;;;;;;;11.75;4.07;;;21.30;71.90;;;;;;5097335;28;20083;-70
2021/07/20 02:16:34;;;;;;;11.38;4.00;;;21.30;72.50;;;;;;5097191;28;20101;-70
2021/07/20 02:19:28;;;;;;;13.45;4.35;;;21.30;72.20;;;;;;5096794;28;20115;-70
2021/07/20 02:21:56;;;;;;;11.63;4.57;;;21.40;72.50;;;;;;5097231;28;20289;-70
2021/07/20 02:24:25;;;;;;;9.85;4.78;;;21.50;71.80;;;;;;5097114;28;20070;-70
2021/07/20 02:26:52;;;;;;;13.70;4.30;;;21.60;71.60;;;;;;5097090;28;20035;-71
2021/07/20 02:29:19;;;;;;;9.43;4.32;;;21.70;72.50;;;;;;5096943;28;20024;-70
2021/07/20 02:31:46;;;;;;;10.02;4.30;;;21.80;71.90;;;;;;5096788;28;20458;-70
2021/07/20 02:34:14;;;;;;;10.40;4.45;;;21.80;71.90;;;;;;5096934;28;20016;-70
2021/07/20 02:36:40;;;;;;;9.38;4.22;;;21.90;71.50;;;;;;5096945;28;20028;-70
2021/07/20 02:39:08;;;;;;;12.05;5.13;;;22.00;71.60;;;;;;5096662;28;20310;-70
2021/07/20 02:41:36;;;;;;;13.43;4.15;;;22.10;70.20;;;;;;5096979;28;20072;-70
2021/07/20 02:44:02;;;;;;;10.93;4.28;;;22.20;69.90;;;;;;5096959;28;20400;-70
2021/07/20 02:46:29;;;;;;;8.27;3.92;;;22.30;70.10;;;;;;5096542;28;20028;-71
2021/07/20 02:48:56;;;;;;;11.65;5.53;;;22.40;71.00;;;;;;5096594;28;20028;-70
2021/07/20 02:51:24;;;;;;;10.95;4.68;;;22.50;69.40;;;;;;5096877;28;20297;-70
2021/07/20 02:53:52;;;;;;;12.60;4.35;;;22.50;69.20;;;;;;5096783;28;20030;-70
2021/07/20 02:56:19;;;;;;;7.50;3.90;;;22.50;69.20;;;;;;5096363;28;20412;-70
2021/07/20 02:58:48;;;;;;;16.73;5.22;;;22.60;70.40;;;;;;5096439;28;20024;-70
2021/07/20 03:01:15;;;;;;;8.27;4.22;;;22.70;69.70;;;;;;5096786;28;20024;-70
2021/07/20 03:03:41;;;;;;;8.35;4.13;;;22.70;69.90;;;;;;5096432;28;20477;-70
2021/07/20 03:06:10;;;;;;;10.27;3.80;;;22.70;69.40;;;;;;5096727;28;20024;-70
2021/07/20 03:08:37;;;;;;;9.68;3.85;;;22.70;70.50;;;;;;5100305;28;20043;-70
2021/07/20 03:11:06;;;;;;;10.65;4.25;;;22.70;71.20;;;;;;5100593;28;20393;-70
2021/07/20 03:13:36;;;;;;;10.00;4.57;;;22.70;70.50;;;;;;5100238;28;20024;-70
2021/07/20 03:16:04;;;;;;;11.40;4.75;;;22.70;70.50;;;;;;5100256;28;20470;-71
2021/07/20 03:18:31;;;;;;;12.05;4.28;;;22.70;70.20;;;;;;5100374;28;20027;-70
2021/07/20 03:20:58;;;;;;;10.15;4.50;;;22.70;69.60;;;;;;5100470;28;20020;-70
2021/07/20 03:23:25;;;;;;;9.52;4.20;;;22.70;69.30;;;;;;5100104;28;20024;-70
2021/07/20 03:25:55;;;;;;;11.95;3.92;;;22.70;67.80;;;;;;5099958;28;20479;-70
2021/07/20 03:28:23;;;;;;;8.57;3.88;;;22.70;68.40;;;;;;5100370;28;20301;-70
2021/07/20 03:30:49;;;;;;;8.88;4.60;;;22.80;68.50;;;;;;5099983;28;20524;-70
2021/07/20 03:33:18;;;;;;;8.73;4.13;;;22.80;68.60;;;;;;5100231;28;20020;-70
2021/07/20 03:35:44;;;;;;;9.98;4.43;;;22.90;69.30;;;;;;5100206;28;20134;-71
2021/07/20 03:38:10;;;;;;;11.05;4.53;;;22.80;70.00;;;;;;5100133;28;20113;-70
2021/07/20 03:40:37;;;;;;;10.25;4.10;;;22.80;69.30;;;;;;5099621;28;20440;-71
2021/07/20 03:43:03;;;;;;;12.38;3.83;;;22.70;70.20;;;;;;5100038;28;20020;-70
2021/07/20 03:45:29;;;;;;;13.35;4.30;;;22.70;70.90;;;;;;5099979;28;20323;-70
2021/07/20 03:47:55;;;;;;;9.70;4.30;;;22.60;70.40;;;;;;5099625;28;20111;-70
2021/07/20 03:50:21;;;;;;;11.98;3.65;;;22.50;70.40;;;;;;5099922;28;20042;-70
2021/07/20 03:52:49;;;;;;;11.63;4.20;;;22.50;70.50;;;;;;5099776;28;20031;-70
2021/07/20 03:55:18;;;;;;;8.20;4.45;;;22.50;69.60;;;;;;5099793;28;20347;-70
2021/07/20 03:57:44;;;;;;;9.48;4.40;;;22.60;68.60;;;;;;5099715;28;20020;-70
2021/07/20 04:00:10;;;;;;;12.85;3.85;;;22.80;68.60;;;;;;5099356;28;20397;-70
2021/07/20 04:02:56;;;;;;;11.32;4.07;;;22.80;70.10;;;;;;5099374;28;20249;-70
2021/07/20 04:05:22;;;;;;;;;;;22.90;70.60;;;;;;5100063;28;20084;-70
2021/07/20 04:07:50;;;;;;;14.75;4.10;;;22.80;68.80;;;;;;5099623;28;19908;-70
2021/07/20 04:10:16;;;;;;;8.77;4.35;;;22.90;68.30;;;;;;5099515;28;20032;-71
2021/07/20 04:12:43;;;;;;;6.55;3.67;;;22.90;68.80;;;;;;5099430;28;20028;-70
2021/07/20 04:15:12;;;;;;;8.93;4.20;;;23.00;69.10;;;;;;5099116;28;20135;-70
2021/07/20 04:17:38;;;;;;;16.45;4.40;;;23.00;70.00;;;;;;5099198;28;20305;-70
2021/07/20 04:20:05;;;;;;;8.80;4.53;;;23.00;69.50;;;;;;5099057;28;20420;-70
2021/07/20 04:22:32;;;;;;;9.65;3.92;;;22.90;68.60;;;;;;5098968;28;20032;-70
2021/07/20 04:24:58;;;;;;;13.40;4.55;;;22.90;68.30;;;;;;5099235;28;20039;-70
2021/07/20 04:27:24;;;;;;;8.65;3.80;;;23.00;69.40;;;;;;5099170;28;20359;-70
2021/07/20 04:29:50;;;;;;;10.57;3.72;;;23.00;70.70;;;;;;5099151;28;20020;-71
2021/07/20 04:32:17;;;;;;;10.20;4.00;;;23.00;71.20;;;;;;5099112;28;20028;-71
2021/07/20 04:34:44;;;;;;;7.43;4.00;;;23.00;71.60;;;;;;5099079;28;20290;-70
2021/07/20 04:37:10;;;;;;;8.27;4.03;;;22.90;72.50;;;;;;5098986;28;20103;-70
2021/07/20 04:39:36;;;;;;;8.35;3.78;;;22.90;72.90;;;;;;5098418;28;20076;-70
2021/07/20 04:42:07;;;;;;;12.35;4.15;;;22.80;73.90;;;;;;5098633;28;20028;-70
2021/07/20 04:44:35;;;;;;;9.18;4.28;;;22.80;73.80;;;;;;5099008;28;20032;-70
2021/07/20 04:47:00;;;;;;;7.32;3.72;;;22.80;74.70;;;;;;5098508;28;20032;-70
2021/07/20 04:49:26;;;;;;;9.32;4.13;;;22.70;74.40;;;;;;5098455;28;20035;-70
2021/07/20 04:51:52;;;;;;;8.15;4.18;;;22.70;74.70;;;;;;5098756;28;20032;-70
2021/07/20 04:54:19;;;;;;;9.98;4.60;;;22.60;74.80;;;;;;5098666;28;20020;-70
2021/07/20 04:56:45;;;;;;;8.27;3.22;;;22.80;73.70;;;;;;5098488;28;20028;-70
2021/07/20 04:59:11;;;;;;;11.20;4.10;;;23.00;71.60;;;;;;5098235;28;20103;-70
2021/07/20 05:01:42;;;;;;;6.75;4.22;;;23.10;69.40;;;;;;5098534;28;20024;-70
2021/07/20 05:04:08;;;;;;;12.40;4.15;;;23.30;69.50;;;;;;5098553;28;20024;-70
2021/07/20 05:06:37;;;;;;;12.90;4.03;;;23.40;71.10;;;;;;5098132;28;20113;-70
2021/07/20 05:09:05;;;;;;;7.93;4.40;;;23.60;70.50;;;;;;5098096;28;20052;-70
2021/07/20 05:11:31;;;;;;;9.35;3.97;;;23.70;68.80;;;;;;5097951;28;20511;-70
2021/07/20 05:13:58;;;;;;;8.68;4.10;;;23.80;69.00;;;;;;5098417;28;20040;-70
2021/07/20 05:16:24;;;;;;;9.50;4.35;;;23.80;68.60;;;;;;5098204;28;20028;-70
2021/07/20 05:18:50;;;;;;;9.40;4.13;;;23.90;69.40;;;;;;5098115;28;20026;-71
2021/07/20 05:21:17;;;;;;;8.77;4.43;;;23.80;70.20;;;;;;5097839;28;20020;-70
2021/07/20 05:23:44;;;;;;;8.73;3.65;;;23.80;69.20;;;;;;5098092;28;20024;-70
2021/07/20 05:26:12;;;;;;;9.60;4.30;;;23.80;70.10;;;;;;5097747;28;20392;-70
2021/07/20 05:28:39;;;;;;;8.85;4.13;;;23.80;69.50;;;;;;5097713;28;20039;-70
2021/07/20 05:31:06;;;;;;;8.60;4.00;;;23.70;68.40;;;;;;5097472;28;20031;-71
2021/07/20 05:33:33;;;;;;;9.20;3.85;;;23.70;70.60;;;;;;5097631;28;20432;-71
2021/07/20 05:36:01;;;;;;;8.20;3.97;;;23.70;72.40;;;;;;5097894;28;20039;-70
2021/07/20 05:38:28;;;;;;;10.23;4.57;;;23.60;74.10;;;;;;5097385;28;20032;-70
2021/07/20 05:40:56;;;;;;;5.88;4.10;;;23.60;73.50;;;;;;5097407;28;20040;-70
2021/07/20 05:43:24;;;;;;;11.63;4.47;;;23.60;70.40;;;;;;5097602;28;20027;-70
2021/07/20 05:45:57;;;;;;;10.00;4.55;;;23.50;70.40;;;;;;5097691;28;20024;-70
2021/07/20 05:48:24;;;;;;;9.57;3.65;;;23.50;71.60;;;;;;5097716;28;20109;-70
2021/07/20 05:50:52;;;;;;;11.32;4.45;;;23.40;70.30;;;;;;5097346;28;20028;-70
2021/07/20 05:53:20;;;;;;;8.10;4.50;;;23.40;71.20;;;;;;5097575;28;20035;-70
2021/07/20 05:55:50;;;;;;;9.25;4.03;;;23.40;71.60;;;;;;5097423;28;20036;-70
2021/07/20 05:58:18;;;;;;;8.75;4.45;;;23.40;71.10;;;;;;5097489;28;20035;-70
2021/07/20 06:00:44;;;;;;;11.93;4.50;;;23.50;69.80;;;;;;5097485;28;20031;-70
2021/07/20 06:03:18;;;;;;;9.77;3.85;;;23.70;70.40;;;;;;5097444;28;20095;-70
2021/07/20 06:05:47;;;;;;;7.03;4.25;;;23.70;69.90;;;;;;5097368;28;20055;-70
2021/07/20 06:08:16;;;;;;;11.50;4.15;;;23.70;72.10;;;;;;5097088;28;20404;-70
2021/07/20 06:10:46;;;;;;;5.43;3.70;;;23.70;70.50;;;;;;5096994;28;20073;-70
2021/07/20 06:13:12;;;;;;;7.60;3.97;;;23.70;69.50;;;;;;5097339;28;20024;-70
2021/07/20 06:15:45;;;;;;;7.68;3.67;;;23.80;71.40;;;;;;5097200;28;20051;-70
2021/07/20 06:18:11;;;;;;;8.00;3.78;;;23.80;71.30;;;;;;5096839;28;20024;-70
2021/07/20 06:20:37;;;;;;;10.18;3.55;;;23.90;74.60;;;;;;5096880;28;20035;-70
2021/07/20 06:23:04;;;;;;;9.85;4.43;;;24.00;73.30;;;;;;5097151;28;20035;-70
2021/07/20 06:25:31;;;;;;;11.10;4.38;;;24.00;72.90;;;;;;5096987;28;20048;-70
2021/07/20 06:27:58;;;;;;;9.02;4.05;;;24.00;71.40;;;;;;5096718;28;20119;-70
2021/07/20 06:30:24;;;;;;;9.88;3.90;;;24.10;70.90;;;;;;5096957;28;20100;-70
2021/07/20 06:32:52;;;;;;;8.30;4.45;;;24.20;70.40;;;;;;5097031;28;20117;-71
2021/07/20 06:35:18;;;;;;;11.32;4.75;;;24.20;70.10;;;;;;5097014;28;20028;-70
2021/07/20 06:37:48;;;;;;;15.40;4.43;;;24.30;69.20;;;;;;5096629;28;20067;-70
2021/07/20 06:40:15;;;;;;;7.43;3.83;;;24.30;70.50;;;;;;5096327;28;20423;-70
2021/07/20 06:42:42;;;;;;;8.57;4.30;;;24.40;71.20;;;;;;5099127;28;20024;-70
2021/07/20 06:45:09;;;;;;;8.82;3.50;;;24.40;71.70;;;;;;5100144;28;20040;-71
2021/07/20 06:47:39;;;;;;;11.57;4.80;;;24.30;68.10;;;;;;5101682;28;20040;-71
2021/07/20 06:50:07;;;;;;;6.72;3.65;;;24.30;68.80;;;;;;5100006;28;20063;-70
2021/07/20 06:52:34;;;;;;;9.68;3.47;;;24.30;71.30;;;;;;5100772;28;20073;-71
2021/07/20 06:55:01;;;;;;;8.70;4.05;;;24.30;68.40;;;;;;5101039;28;20085;-70
2021/07/20 06:57:28;;;;;;;9.25;3.80;;;24.30;69.60;;;;;;5100500;28;20108;-71
2021/07/20 06:59:57;;;;;;;7.15;3.60;;;24.20;69.50;;;;;;5100934;28;20320;-70
2021/07/20 07:02:25;;;;;;;9.57;3.97;;;24.10;69.60;;;;;;5100538;28;20016;-70
2021/07/20 07:05:04;;;;;;;11.18;3.97;;;24.10;69.70;;;;;;5100535;28;20029;-70
2021/07/20 07:07:31;;;;;;;11.18;5.15;;;24.10;70.00;;;;;;5100412;28;20024;-70
2021/07/20 07:09:59;;;;;;;10.88;4.18;;;24.10;70.80;;;;;;5100705;28;20058;-71
2021/07/20 07:12:26;;;;;;;9.32;3.60;;;24.30;71.20;;;;;;5100398;28;20025;-71
2021/07/20 07:14:53;;;;;;;11.88;4.32;;;24.40;69.80;;;;;;5100606;28;20062;-70
2021/07/20 07:17:19;;;;;;;7.43;3.50;;;24.40;69.20;;;;;;5100562;28;20020;-70
2021/07/20 07:19:48;;;;;;;7.50;3.70;;;24.30;70.70;;;;;;5100478;28;20334;-70
2021/07/20 07:22:17;;;;;;;8.30;3.78;;;24.30;70.20;;;;;;5100477;28;20046;-70
2021/07/20 07:24:44;;;;;;;9.48;4.03;;;24.20;70.00;;;;;;5100398;28;20035;-70
2021/07/20 07:27:12;;;;;;;10.23;4.03;;;24.30;68.90;;;;;;5100391;28;20020;-70
2021/07/20 07:29:38;;;;;;;8.90;3.50;;;24.60;69.40;;;;;;5100007;28;20024;-71
2021/07/20 07:32:04;;;;;;;8.77;4.00;;;24.80;70.40;;;;;;5100016;28;20035;-70
2021/07/20 07:34:30;;;;;;;8.35;3.53;;;25.10;68.60;;;;;;5100259;28;20350;-71
2021/07/20 07:36:58;;;;;;;13.05;4.05;;;25.30;68.30;;;;;;5100198;28;20035;-70
2021/07/20 07:39:25;;;;;;;9.38;4.57;;;25.50;70.00;;;;;;5099778;28;20125;-71
2021/07/20 07:41:53;;;;;;;9.13;4.00;;;25.70;68.50;;;;;;5100091;28;20035;-71
2021/07/20 07:44:20;;;;;;;8.15;4.35;;;26.10;66.70;;;;;;5100213;28;20362;-71
2021/07/20 07:46:46;;;;;;;6.60;3.60;;;26.70;66.30;;;;;;5099708;28;20028;-71
2021/07/20 07:49:13;;;;;;;6.75;3.53;;;27.40;64.60;;;;;;5099685;28;20036;-71
2021/07/20 07:51:41;;;;;;;8.45;3.15;;;28.10;62.20;;;;;;5099929;28;20332;-71
2021/07/20 07:54:07;;;;;;;9.77;3.53;;;28.50;58.90;;;;;;5099230;28;20032;-71
2021/07/20 07:56:33;;;;;;;5.03;3.15;;;29.30;56.70;;;;;;5099846;28;20324;-71
2021/07/20 07:59:00;;;;;;;10.15;3.33;;;29.50;57.40;;;;;;5099699;28;20032;-71
2021/07/20 08:01:28;;;;;;;8.80;3.50;;;29.70;57.70;;;;;;5099742;28;20340;-71
2021/07/20 08:03:56;;;;;;;6.90;2.90;;;29.50;58.10;;;;;;5099706;28;20047;-71
2021/07/20 08:06:25;;;;;;;7.75;3.22;;;28.90;58.00;;;;;;5099666;28;20073;-71
2021/07/20 08:08:58;;;;;;;5.78;3.30;;;28.60;59.70;;;;;;5099632;28;20328;-71
2021/07/20 08:11:24;;;;;;;8.15;3.17;;;28.30;58.40;;;;;;5099563;28;20027;-71
2021/07/20 08:13:53;;;;;;;9.30;3.03;;;28.30;61.30;;;;;;5099589;28;20024;-71
2021/07/20 08:16:22;;;;;;;8.18;3.60;;;28.40;59.80;;;;;;5099152;28;20420;-71
2021/07/20 08:18:47;;;;;;;5.05;2.78;;;29.10;60.90;;;;;;5099312;28;20313;-71
2021/07/20 08:21:14;;;;;;;8.23;3.28;;;30.00;57.40;;;;;;5099387;28;20033;-71
2021/07/20 08:23:41;;;;;;;7.93;2.58;;;30.50;56.20;;;;;;5099308;28;20336;-71
2021/07/20 08:26:20;;;;;;;6.25;2.78;;;31.30;53.30;;;;;;5098953;28;20016;-71
2021/07/20 08:29:06;;;;;;;5.82;2.47;;;31.40;51.40;;;;;;5099295;28;20062;-71
2021/07/20 08:31:37;;;;;;;5.45;2.70;;;31.50;52.30;;;;;;5098887;28;20412;-71
2021/07/20 08:34:04;;;;;;;6.90;2.72;;;31.80;52.50;;;;;;5098702;28;20115;-71
2021/07/20 08:36:33;;;;;;;9.80;2.67;;;32.30;54.40;;;;;;5098756;28;20028;-71
2021/07/20 08:39:01;;;;;;;8.55;3.03;;;32.60;51.60;;;;;;5098741;28;20111;-71
2021/07/20 08:41:48;;;;;;;6.50;2.65;;;32.50;51.50;;;;;;5098782;28;20025;-71
2021/07/20 08:44:59;;;;;;;6.68;2.38;;;32.70;52.30;;;;;;5098684;28;20048;-71
2021/07/20 08:47:44;;;;;;;8.23;2.53;;;33.20;52.70;;;;;;5098854;28;20085;-71
2021/07/20 08:50:15;;;;;;;12.90;3.05;;;33.30;48.40;;;;;;5098524;28;20035;-71
2021/07/20 08:53:10;;;;;;;6.97;2.53;;;33.60;50.60;;;;;;5098821;28;20081;-71
2021/07/20 08:55:42;;;;;;;9.48;2.63;;;33.90;48.90;;;;;;5098679;28;20020;-71
2021/07/20 08:58:24;;;;;;;8.23;2.65;;;34.10;50.20;;;;;;5098586;28;20032;-71
2021/07/20 09:00:53;;;;;;;5.68;2.42;;;33.80;48.70;;;;;;5098626;28;20336;-71
2021/07/20 09:03:32;;;;;;;3.55;2.50;;;34.10;49.10;;;;;;5098249;28;20020;-71
2021/07/20 09:06:15;;;;;;;4.28;2.55;;;34.10;49.10;;;;;;5097611;28;20039;-71
2021/07/20 09:09:04;;;;;;;10.43;3.42;;;33.80;48.00;;;;;;5098168;28;20111;-71
2021/07/20 09:11:30;;;;;;;5.15;2.92;;;33.60;49.50;;;;;;5087691;28;20036;-71
2021/07/20 09:14:13;;;;;;;6.03;2.63;;;33.70;48.80;;;;;;5098447;28;20040;-71
2021/07/20 09:16:46;;;;;;;6.28;3.10;;;33.80;50.60;;;;;;5098251;28;20036;-71
2021/07/20 09:19:26;;;;;;;5.05;2.92;;;34.00;48.40;;;;;;5098090;28;20378;-71
2021/07/20 09:21:56;;;;;;;6.80;2.72;;;34.10;50.80;;;;;;5097885;28;20431;-71
2021/07/20 09:24:33;;;;;;;4.90;3.13;;;34.20;46.90;;;;;;5097840;28;20028;-71
2021/07/20 09:27:17;;;;;;;4.93;2.75;;;34.20;48.10;;;;;;5097745;28;20024;-71
2021/07/20 09:29:46;;;;;;;8.57;3.15;;;33.90;47.50;;;;;;5097775;28;20111;-71
2021/07/20 09:32:57;;;;;;;6.47;3.20;;;33.90;51.20;;;;;;5098013;28;20028;-71
2021/07/20 09:35:43;;;;;;;11.57;3.58;;;33.70;49.80;;;;;;5097596;28;20412;-71
2021/07/20 09:38:18;;;;;;;10.02;3.28;;;33.80;49.20;;;;;;5097566;28;20035;-71
2021/07/20 09:41:23;;;;;;;7.35;3.63;;;33.80;49.20;;;;;;5097448;28;20044;-71
2021/07/20 09:44:07;;;;;;;7.13;3.20;;;33.90;49.40;;;;;;5096347;28;20036;-71
2021/07/20 09:46:33;;;;;;;8.55;3.17;;;33.80;49.40;;;;;;5097685;28;20032;-71
2021/07/20 09:49:02;;;;;;;8.18;2.97;;;33.80;50.20;;;;;;5097560;28;20422;-71
2021/07/20 09:51:39;;;;;;;7.35;3.15;;;33.40;53.10;;;;;;5097313;28;20024;-71
2021/07/20 09:54:38;;;;;;;4.40;2.70;;;33.40;50.70;;;;;;5097659;28;20027;-71
2021/07/20 09:57:16;;;;;;;9.48;3.60;;;33.30;49.70;;;;;;5097663;28;20020;-71
2021/07/20 09:59:49;;;;;;;5.78;3.15;;;33.10;50.00;;;;;;5097431;28;20040;-71
2021/07/20 10:02:44;;;;;;;6.15;3.10;;;33.10;52.30;;;;;;5097499;28;20051;-71
2021/07/20 10:05:15;;;;;;;7.00;3.40;;;33.10;51.10;;;;;;5097124;28;20040;-71
2021/07/20 10:07:46;;;;;;;8.13;2.90;;;33.30;50.60;;;;;;5097116;28;20038;-71
2021/07/20 10:10:19;;;;;;;5.35;3.10;;;33.40;49.10;;;;;;5097376;28;20028;-71
2021/07/20 10:13:32;;;;;;;15.15;3.97;;;33.70;51.50;;;;;;5097336;28;20099;-71
2021/07/20 10:16:14;;;;;;;11.65;4.03;;;34.00;53.10;;;;;;5092627;28;20028;-71
2021/07/20 10:19:05;;;;;;;7.75;3.30;;;34.20;52.70;;;;;;5095461;28;20308;-71
2021/07/20 10:21:34;;;;;;;5.97;3.25;;;34.30;47.80;;;;;;5106165;28;20095;-71
2021/07/20 10:24:11;;;;;;;7.00;3.95;;;34.30;51.00;;;;;;5096855;28;20404;-71
2021/07/20 10:27:01;;;;;;;8.93;3.25;;;34.10;49.40;;;;;;5097134;28;20024;-71
2021/07/20 10:29:48;;;;;;;9.90;3.38;;;34.10;47.30;;;;;;5096838;28;20030;-71
2021/07/20 10:32:30;;;;;;;8.18;3.00;;;33.80;50.40;;;;;;5096790;28;20123;-71
2021/07/20 10:35:02;;;;;;;6.20;2.70;;;33.90;51.40;;;;;;5097108;28;20043;-71
2021/07/20 10:37:31;;;;;;;8.13;3.00;;;33.70;53.10;;;;;;5096738;28;20035;-71
2021/07/20 10:40:07;;;;;;;7.88;2.83;;;33.80;50.10;;;;;;5096628;28;20372;-71
2021/07/20 10:42:56;;;;;;;8.27;3.22;;;34.00;49.30;;;;;;5096967;28;20024;-71
2021/07/20 10:45:24;;;;;;;9.52;3.10;;;34.10;47.40;;;;;;5096647;28;20376;-71
2021/07/20 10:48:23;;;;;;;7.80;3.05;;;34.10;48.10;;;;;;5096619;28;20342;-71
2021/07/20 10:50:55;;;;;;;6.68;3.20;;;34.10;50.00;;;;;;5096891;28;20020;-71
2021/07/20 10:53:43;;;;;;;11.60;3.70;;;34.00;50.10;;;;;;5096603;28;20048;-71
2021/07/20 10:56:22;;;;;;;9.35;3.70;;;33.90;50.20;;;;;;5096829;28;20359;-71
2021/07/20 10:59:09;;;;;;;13.38;4.00;;;33.90;48.40;;;;;;5096857;28;20324;-71
2021/07/20 11:02:05;;;;;;;10.70;3.28;;;33.80;47.50;;;;;;5096833;28;20312;-71
2021/07/20 11:04:43;;;;;;;10.57;3.60;;;33.80;50.20;;;;;;5096805;28;20032;-71
2021/07/20 11:07:10;;;;;;;9.95;3.83;;;33.40;49.00;;;;;;5096452;28;20020;-71
2021/07/20 11:09:40;;;;;;;12.85;4.10;;;33.10;49.90;;;;;;5096700;28;20111;-71
2021/07/20 11:12:07;;;;;;;7.32;3.05;;;33.40;52.30;;;;;;5096414;28;20431;-72
2021/07/20 11:14:46;;;;;;;8.18;3.88;;;33.80;50.00;;;;;;5096786;28;20056;-71
2021/07/20 11:17:16;;;;;;;10.60;3.97;;;33.80;49.60;;;;;;5096658;28;20028;-71
2021/07/20 11:19:44;;;;;;;8.75;3.70;;;33.80;50.90;;;;;;5096293;28;20028;-71
2021/07/20 11:22:12;;;;;;;7.95;3.72;;;33.50;51.10;;;;;;5096648;28;20025;-71
2021/07/20 11:24:38;;;;;;;12.07;3.80;;;33.20;50.30;;;;;;5096253;28;20469;-71
2021/07/20 11:27:05;;;;;;;9.52;3.72;;;33.10;51.10;;;;;;5096556;28;20368;-71
2021/07/20 11:29:31;;;;;;;9.48;3.33;;;33.20;52.50;;;;;;5099876;28;20054;-71
2021/07/20 11:32:04;;;;;;;6.53;3.70;;;33.40;52.50;;;;;;5100010;28;20035;-71
2021/07/20 11:34:41;;;;;;;5.65;3.33;;;33.30;54.00;;;;;;5100015;28;20028;-71
2021/07/20 11:37:22;;;;;;;7.82;3.35;;;33.30;53.50;;;;;;5099911;28;20112;-71
2021/07/20 11:39:55;;;;;;;9.07;3.33;;;33.40;53.10;;;;;;5099524;28;20515;-71
2021/07/20 11:42:34;;;;;;;10.20;3.60;;;33.40;53.10;;;;;;5100205;28;20016;-71
2021/07/20 11:45:08;;;;;;;7.22;3.33;;;33.30;53.30;;;;;;5100085;28;20044;-71
2021/07/20 11:47:40;;;;;;;7.78;3.58;;;32.90;52.90;;;;;;5100146;28;20028;-71
2021/07/20 11:50:09;;;;;;;6.03;3.00;;;32.80;56.30;;;;;;5100031;28;20122;-71
2021/07/20 11:52:59;;;;;;;8.15;3.72;;;32.80;54.80;;;;;;5099948;28;20053;-71
2021/07/20 11:55:56;;;;;;;13.35;3.58;;;32.70;55.10;;;;;;5081782;28;20067;-71
2021/07/20 11:58:22;;;;;;;11.38;4.18;;;32.50;53.70;;;;;;5099441;28;20439;-71
2021/07/20 12:01:06;;;;;;;10.52;3.65;;;32.20;53.10;;;;;;5099455;28;20028;-71
2021/07/20 12:04:09;;;;;;;9.83;3.83;;;32.00;55.70;;;;;;5099766;28;20031;-71
2021/07/20 12:06:34;;;;;;;10.95;3.45;;;31.80;54.10;;;;;;5099342;28;20028;-71
2021/07/20 12:09:06;;;;;;;11.38;3.78;;;31.80;56.40;;;;;;5099315;28;20089;-71
2021/07/20 12:11:38;;;;;;;11.02;4.22;;;31.80;58.60;;;;;;5099602;28;20042;-71
2021/07/20 12:14:08;;;;;;;11.27;3.63;;;31.70;56.30;;;;;;5099577;28;20038;-71
2021/07/20 12:16:45;;;;;;;7.57;4.15;;;31.70;55.70;;;;;;5099473;28;20028;-71
2021/07/20 12:19:13;;;;;;;8.77;4.10;;;31.40;54.60;;;;;;5099098;28;20115;-71
2021/07/20 12:21:40;;;;;;;8.57;4.13;;;31.20;57.80;;;;;;5099395;28;20012;-71
2021/07/20 12:24:11;;;;;;;12.63;4.30;;;31.10;56.60;;;;;;5099328;28;20047;-71
2021/07/20 12:26:39;;;;;;;7.63;4.00;;;30.80;57.80;;;;;;5099286;28;20057;-71
2021/07/20 12:29:07;;;;;;;9.48;3.95;;;30.80;57.80;;;;;;5099006;28;20032;-71
2021/07/20 12:31:34;;;;;;;13.57;3.92;;;30.80;58.00;;;;;;5099220;28;20293;-71
2021/07/20 12:34:02;;;;;;;11.85;4.60;;;30.90;56.90;;;;;;5099110;28;20023;-71
2021/07/20 12:36:28;;;;;;;13.50;3.95;;;31.00;58.70;;;;;;5099112;28;20095;-71
2021/07/20 12:39:11;;;;;;;8.57;4.03;;;31.00;57.50;;;;;;5098785;28;20111;-71
2021/07/20 12:41:42;;;;;;;9.52;4.40;;;31.10;58.00;;;;;;5098764;28;20112;-71
2021/07/20 12:44:08;;;;;;;7.30;4.35;;;31.10;57.80;;;;;;5099119;28;20331;-71
2021/07/20 12:46:36;;;;;;;10.75;3.97;;;31.20;59.00;;;;;;5098881;28;20020;-71
2021/07/20 12:49:04;;;;;;;9.88;4.15;;;31.10;58.50;;;;;;5098897;28;20088;-71
2021/07/20 12:51:30;;;;;;;11.85;4.25;;;31.10;57.30;;;;;;5098798;28;20034;-71
2021/07/20 12:53:56;;;;;;;6.55;3.88;;;31.00;59.20;;;;;;5098715;28;20031;-71
2021/07/20 12:56:33;;;;;;;10.48;3.78;;;31.10;58.70;;;;;;5098418;28;20024;-71
2021/07/20 12:59:04;;;;;;;10.45;4.22;;;30.90;57.80;;;;;;5098271;28;20024;-71
2021/07/20 13:01:32;;;;;;;8.48;3.92;;;30.70;58.40;;;;;;5098312;28;20016;-71
2021/07/20 13:03:59;;;;;;;8.80;4.13;;;30.70;58.00;;;;;;5098541;28;20028;-71
2021/07/20 13:06:26;;;;;;;13.07;4.50;;;30.80;57.70;;;;;;5098507;28;20316;-71